sensor_id;sensor_type;location;lat;lon;timestamp;pressure;altitude;pressure_sealevel;temperature;humidity
8280;BME280;8335;42.646;23.380;2022-09-04T00:02:32;94802.88;;;15.85;100.00
8280;BME280;8335;42.646;23.380;2022-09-04T00:05:08;94797.31;;;15.79;100.00
8280;BME280;8335;42.646;23.380;2022-09-04T00:07:43;94800.63;;;15.68;100.00
8280;BME280;8335;42.646;23.380;2022-09-04T00:10:19;94793.03;;;15.66;100.00
8280;BME280;8335;42.646;23.380;2022-09-04T00:12:53;94804.13;;;15.67;100.00
8280;BME280;8335;42.646;23.380;2022-09-04T00:15:28;94805.94;;;15.52;100.00
8280;BME280;8335;42.646;23.380;2022-09-04T00:18:05;94806.34;;;15.59;100.00
8280;BME280;8335;42.646;23.380;2022-09-04T00:20:37;94807.34;;;15.56;100.00
8280;BME280;8335;42.646;23.380;2022-09-04T00:23:10;94808.81;;;15.60;100.00
8280;BME280;8335;42.646;23.380;2022-09-04T00:25:44;94812.31;;;15.59;100.00
8280;BME280;8335;42.646;23.380;2022-09-04T00:28:24;94806.75;;;15.53;100.00
8280;BME280;8335;42.646;23.380;2022-09-04T00:30:58;94807.16;;;15.47;100.00
8280;BME280;8335;42.646;23.380;2022-09-04T00:33:33;94810.75;;;15.44;100.00
8280;BME280;8335;42.646;23.380;2022-09-04T00:36:06;94815.47;;;15.37;100.00
8280;BME280;8335;42.646;23.380;2022-09-04T00:38:39;94823.13;;;15.25;100.00
8280;BME280;8335;42.646;23.380;2022-09-04T00:41:14;94821.16;;;15.16;100.00
8280;BME280;8335;42.646;23.380;2022-09-04T00:44:10;94820.41;;;15.13;100.00
8280;BME280;8335;42.646;23.380;2022-09-04T00:47:19;94817.34;;;15.08;100.00
8280;BME280;8335;42.646;23.380;2022-09-04T00:50:05;94817.03;;;15.13;100.00
8280;BME280;8335;42.646;23.380;2022-09-04T00:52:50;94823.72;;;15.16;100.00
8280;BME280;8335;42.646;23.380;2022-09-04T00:55:36;94815.81;;;15.19;100.00
8280;BME280;8335;42.646;23.380;2022-09-04T00:58:18;94805.78;;;15.16;100.00
8280;BME280;8335;42.646;23.380;2022-09-04T01:00:49;94812.78;;;14.99;100.00
8280;BME280;8335;42.646;23.380;2022-09-04T01:03:45;94807.63;;;14.86;100.00
8280;BME280;8335;42.646;23.380;2022-09-04T01:06:29;94808.50;;;14.73;100.00
8280;BME280;8335;42.646;23.380;2022-09-04T01:09:31;94804.25;;;14.59;100.00
8280;BME280;8335;42.646;23.380;2022-09-04T01:12:10;94807.34;;;14.50;100.00
8280;BME280;8335;42.646;23.380;2022-09-04T01:14:41;94807.91;;;14.55;100.00
8280;BME280;8335;42.646;23.380;2022-09-04T01:17:16;94812.66;;;14.61;100.00
8280;BME280;8335;42.646;23.380;2022-09-04T01:19:57;94811.81;;;14.61;100.00
8280;BME280;8335;42.646;23.380;2022-09-04T01:22:44;94811.63;;;14.64;100.00
8280;BME280;8335;42.646;23.380;2022-09-04T01:25:29;94821.06;;;14.63;100.00
8280;BME280;8335;42.646;23.380;2022-09-04T01:28:02;94819.25;;;14.65;100.00
8280;BME280;8335;42.646;23.380;2022-09-04T01:30:39;94809.81;;;14.66;100.00
8280;BME280;8335;42.646;23.380;2022-09-04T01:33:14;94805.41;;;14.68;100.00
8280;BME280;8335;42.646;23.380;2022-09-04T01:35:49;94796.25;;;14.64;100.00
8280;BME280;8335;42.646;23.380;2022-09-04T01:38:24;94787.94;;;14.60;100.00
8280;BME280;8335;42.646;23.380;2022-09-04T01:40:59;94786.09;;;14.62;100.00
8280;BME280;8335;42.646;23.380;2022-09-04T01:43:28;94797.06;;;14.64;100.00
8280;BME280;8335;42.646;23.380;2022-09-04T01:48:59;94786.91;;;14.63;100.00
8280;BME280;8335;42.646;23.380;2022-09-04T01:51:35;94776.31;;;14.54;100.00
8280;BME280;8335;42.646;23.380;2022-09-04T01:54:19;94775.41;;;14.55;100.00
8280;BME280;8335;42.646;23.380;2022-09-04T01:56:59;94791.31;;;14.61;100.00
8280;BME280;8335;42.646;23.380;2022-09-04T01:59:42;94786.41;;;14.57;100.00
8280;BME280;8335;42.646;23.380;2022-09-04T02:02:21;94781.44;;;14.54;100.00
8280;BME280;8335;42.646;23.380;2022-09-04T02:04:55;94784.00;;;14.54;100.00
8280;BME280;8335;42.646;23.380;2022-09-04T02:07:27;94786.41;;;14.57;100.00
8280;BME280;8335;42.646;23.380;2022-09-04T02:10:05;94783.84;;;14.57;100.00
8280;BME280;8335;42.646;23.380;2022-09-04T02:12:38;94759.03;;;14.44;100.00
8280;BME280;8335;42.646;23.380;2022-09-04T02:15:19;94785.56;;;14.57;100.00
8280;BME280;8335;42.646;23.380;2022-09-04T02:17:55;94784.00;;;14.54;100.00
8280;BME280;8335;42.646;23.380;2022-09-04T02:20:29;94784.28;;;14.50;100.00
8280;BME280;8335;42.646;23.380;2022-09-04T02:23:08;94783.56;;;14.48;100.00
8280;BME280;8335;42.646;23.380;2022-09-04T02:25:44;94789.84;;;14.42;100.00
8280;BME280;8335;42.646;23.380;2022-09-04T02:28:24;94790.69;;;14.43;100.00
8280;BME280;8335;42.646;23.380;2022-09-04T02:31:01;94782.28;;;14.41;100.00
8280;BME280;8335;42.646;23.380;2022-09-04T02:33:35;94776.44;;;14.39;100.00
8280;BME280;8335;42.646;23.380;2022-09-04T02:36:09;94773.88;;;14.39;100.00
8280;BME280;8335;42.646;23.380;2022-09-04T02:38:45;94769.03;;;14.34;100.00
8280;BME280;8335;42.646;23.380;2022-09-04T02:41:20;94770.97;;;14.30;100.00
8280;BME280;8335;42.646;23.380;2022-09-04T02:44:01;94770.16;;;14.30;100.00
8280;BME280;8335;42.646;23.380;2022-09-04T02:46:37;94777.63;;;14.33;100.00
8280;BME280;8335;42.646;23.380;2022-09-04T02:49:10;94781.66;;;14.37;100.00
8280;BME280;8335;42.646;23.380;2022-09-04T02:51:50;94785.66;;;14.41;100.00
8280;BME280;8335;42.646;23.380;2022-09-04T02:54:31;94788.59;;;14.35;100.00
8280;BME280;8335;42.646;23.380;2022-09-04T02:57:13;94792.06;;;14.34;100.00
8280;BME280;8335;42.646;23.380;2022-09-04T02:59:50;94789.63;;;14.32;100.00
8280;BME280;8335;42.646;23.380;2022-09-04T03:02:28;94765.06;;;14.16;100.00
8280;BME280;8335;42.646;23.380;2022-09-04T03:05:02;94799.66;;;14.36;100.00
8280;BME280;8335;42.646;23.380;2022-09-04T03:07:33;94798.31;;;14.30;100.00
8280;BME280;8335;42.646;23.380;2022-09-04T03:10:08;94803.16;;;14.35;100.00
8280;BME280;8335;42.646;23.380;2022-09-04T03:12:40;94798.22;;;14.31;100.00
8280;BME280;8335;42.646;23.380;2022-09-04T03:15:14;94803.34;;;14.31;100.00
8280;BME280;8335;42.646;23.380;2022-09-04T03:17:48;94795.75;;;14.30;100.00
8280;BME280;8335;42.646;23.380;2022-09-04T03:20:21;94803.25;;;14.33;100.00
8280;BME280;8335;42.646;23.380;2022-09-04T03:22:53;94804.38;;;14.29;100.00
8280;BME280;8335;42.646;23.380;2022-09-04T03:25:48;94802.78;;;14.26;100.00
8280;BME280;8335;42.646;23.380;2022-09-04T03:28:26;94791.09;;;14.22;100.00
8280;BME280;8335;42.646;23.380;2022-09-04T03:31:01;94796.41;;;14.19;100.00
8280;BME280;8335;42.646;23.380;2022-09-04T03:33:37;94798.41;;;14.14;100.00
8280;BME280;8335;42.646;23.380;2022-09-04T03:36:11;94795.44;;;14.08;100.00
8280;BME280;8335;42.646;23.380;2022-09-04T03:38:49;94794.06;;;14.02;100.00
8280;BME280;8335;42.646;23.380;2022-09-04T03:41:22;94806.97;;;14.00;100.00
8280;BME280;8335;42.646;23.380;2022-09-04T03:44:05;94798.72;;;13.95;100.00
8280;BME280;8335;42.646;23.380;2022-09-04T03:46:51;94801.19;;;13.97;100.00
8280;BME280;8335;42.646;23.380;2022-09-04T03:49:33;94802.09;;;13.96;100.00
8280;BME280;8335;42.646;23.380;2022-09-04T03:52:15;94806.97;;;13.86;100.00
8280;BME280;8335;42.646;23.380;2022-09-04T03:54:55;94815.63;;;13.84;100.00
8280;BME280;8335;42.646;23.380;2022-09-04T03:57:39;94827.34;;;13.88;100.00
8280;BME280;8335;42.646;23.380;2022-09-04T04:00:13;94832.16;;;13.92;100.00
8280;BME280;8335;42.646;23.380;2022-09-04T04:03:28;94833.75;;;13.95;100.00
8280;BME280;8335;42.646;23.380;2022-09-04T04:06:09;94832.47;;;14.02;100.00
8280;BME280;8335;42.646;23.380;2022-09-04T04:09:03;94833.19;;;14.18;100.00
8280;BME280;8335;42.646;23.380;2022-09-04T04:12:05;94842.78;;;14.57;100.00
8280;BME280;8335;42.646;23.380;2022-09-04T04:15:04;94860.28;;;14.78;100.00
8280;BME280;8335;42.646;23.380;2022-09-04T04:17:53;94869.06;;;14.88;100.00
8280;BME280;8335;42.646;23.380;2022-09-04T04:20:29;94878.00;;;14.95;100.00
8280;BME280;8335;42.646;23.380;2022-09-04T04:23:17;94877.09;;;15.23;100.00
8280;BME280;8335;42.646;23.380;2022-09-04T04:25:59;94871.97;;;15.63;100.00
8280;BME280;8335;42.646;23.380;2022-09-04T04:28:47;94887.94;;;16.32;100.00
8280;BME280;8335;42.646;23.380;2022-09-04T04:31:39;94881.00;;;16.70;100.00
8280;BME280;8335;42.646;23.380;2022-09-04T04:34:15;94890.84;;;16.89;100.00
8280;BME280;8335;42.646;23.380;2022-09-04T04:36:51;94892.06;;;16.96;100.00
8280;BME280;8335;42.646;23.380;2022-09-04T04:39:27;94896.16;;;16.99;100.00
8280;BME280;8335;42.646;23.380;2022-09-04T04:42:08;94913.94;;;17.15;100.00
8280;BME280;8335;42.646;23.380;2022-09-04T04:44:52;94908.72;;;17.75;100.00
8280;BME280;8335;42.646;23.380;2022-09-04T04:47:54;94902.63;;;18.90;93.54
8280;BME280;8335;42.646;23.380;2022-09-04T04:50:36;94902.59;;;20.09;86.95
8280;BME280;8335;42.646;23.380;2022-09-04T04:53:11;94819.16;;;20.68;81.85
8280;BME280;8335;42.646;23.380;2022-09-04T04:55:51;94915.34;;;22.39;76.50
8280;BME280;8335;42.646;23.380;2022-09-04T04:58:35;94911.38;;;23.37;71.15
8280;BME280;8335;42.646;23.380;2022-09-04T05:01:12;94907.50;;;23.41;69.51
8280;BME280;8335;42.646;23.380;2022-09-04T05:03:52;94927.56;;;23.48;68.73
8280;BME280;8335;42.646;23.380;2022-09-04T05:06:27;94939.97;;;23.54;68.20
8280;BME280;8335;42.646;23.380;2022-09-04T05:09:06;94925.72;;;23.13;69.31
8280;BME280;8335;42.646;23.380;2022-09-04T05:11:44;94926.09;;;22.53;71.21
8280;BME280;8335;42.646;23.380;2022-09-04T05:14:27;94914.56;;;22.19;73.41
8280;BME280;8335;42.646;23.380;2022-09-04T05:17:05;94909.25;;;21.82;75.07
8280;BME280;8335;42.646;23.380;2022-09-04T05:19:39;94917.28;;;22.37;73.03
8280;BME280;8335;42.646;23.380;2022-09-04T05:22:12;94908.38;;;22.86;70.79
8280;BME280;8335;42.646;23.380;2022-09-04T05:24:48;94911.03;;;22.67;70.87
8280;BME280;8335;42.646;23.380;2022-09-04T05:27:34;94912.25;;;22.25;71.52
8280;BME280;8335;42.646;23.380;2022-09-04T05:30:09;94903.25;;;21.33;74.47
8280;BME280;8335;42.646;23.380;2022-09-04T05:32:42;94927.66;;;21.00;76.68
8280;BME280;8335;42.646;23.380;2022-09-04T05:35:16;94902.03;;;20.35;79.47
8280;BME280;8335;42.646;23.380;2022-09-04T05:37:52;94899.81;;;20.00;81.04
8280;BME280;8335;42.646;23.380;2022-09-04T05:40:26;94905.00;;;19.68;82.74
8280;BME280;8335;42.646;23.380;2022-09-04T05:43:05;94908.22;;;19.49;83.58
8280;BME280;8335;42.646;23.380;2022-09-04T05:45:51;94914.03;;;19.74;83.77
8280;BME280;8335;42.646;23.380;2022-09-04T05:48:26;94934.59;;;20.99;78.66
8280;BME280;8335;42.646;23.380;2022-09-04T05:51:06;94903.69;;;22.52;71.96
8280;BME280;8335;42.646;23.380;2022-09-04T05:59:31;94934.56;;;27.10;55.34
8280;BME280;8335;42.646;23.380;2022-09-04T06:02:16;94937.22;;;28.18;50.69
8280;BME280;8335;42.646;23.380;2022-09-04T06:05:02;94917.94;;;29.01;47.51
8280;BME280;8335;42.646;23.380;2022-09-04T06:07:36;94927.84;;;29.93;44.93
8280;BME280;8335;42.646;23.380;2022-09-04T06:10:13;94923.84;;;30.40;43.21
8280;BME280;8335;42.646;23.380;2022-09-04T06:16:03;94929.75;;;30.70;42.13
8280;BME280;8335;42.646;23.380;2022-09-04T06:18:45;94933.78;;;30.17;43.47
8280;BME280;8335;42.646;23.380;2022-09-04T06:21:48;94923.06;;;29.75;45.03
8280;BME280;8335;42.646;23.380;2022-09-04T06:24:27;94924.88;;;29.24;45.33
8280;BME280;8335;42.646;23.380;2022-09-04T06:27:07;94919.53;;;28.43;47.28
8280;BME280;8335;42.646;23.380;2022-09-04T06:35:33;94921.00;;;27.46;50.83
8280;BME280;8335;42.646;23.380;2022-09-04T06:38:18;94921.31;;;27.51;50.49
8280;BME280;8335;42.646;23.380;2022-09-04T06:41:01;94916.94;;;27.43;49.69
8280;BME280;8335;42.646;23.380;2022-09-04T06:43:37;94920.00;;;27.47;50.80
8280;BME280;8335;42.646;23.380;2022-09-04T06:46:14;94921.59;;;27.87;49.29
8280;BME280;8335;42.646;23.380;2022-09-04T06:48:52;94913.13;;;28.23;48.29
8280;BME280;8335;42.646;23.380;2022-09-04T06:51:39;94931.31;;;28.92;47.29
8280;BME280;8335;42.646;23.380;2022-09-04T06:54:15;94898.88;;;29.44;44.46
8280;BME280;8335;42.646;23.380;2022-09-04T06:57:06;94945.31;;;30.44;42.56
8280;BME280;8335;42.646;23.380;2022-09-04T06:59:57;94933.75;;;30.94;41.31
8280;BME280;8335;42.646;23.380;2022-09-04T07:02:38;94925.78;;;31.15;40.25
8280;BME280;8335;42.646;23.380;2022-09-04T07:05:16;94939.50;;;31.11;40.00
8280;BME280;8335;42.646;23.380;2022-09-04T07:07:51;94937.97;;;30.88;41.27
8280;BME280;8335;42.646;23.380;2022-09-04T07:10:23;94936.72;;;31.19;41.04
8280;BME280;8335;42.646;23.380;2022-09-04T07:13:08;94943.72;;;31.40;41.20
8280;BME280;8335;42.646;23.380;2022-09-04T07:16:06;94936.34;;;31.76;39.28
8280;BME280;8335;42.646;23.380;2022-09-04T07:18:57;94941.50;;;31.37;40.68
8280;BME280;8335;42.646;23.380;2022-09-04T07:21:34;94926.25;;;30.91;41.25
8280;BME280;8335;42.646;23.380;2022-09-04T07:24:12;94946.38;;;31.12;41.61
8280;BME280;8335;42.646;23.380;2022-09-04T07:26:47;94941.00;;;31.74;40.26
8280;BME280;8335;42.646;23.380;2022-09-04T07:29:28;94938.34;;;31.68;40.49
8280;BME280;8335;42.646;23.380;2022-09-04T07:32:02;94927.53;;;31.02;41.54
8280;BME280;8335;42.646;23.380;2022-09-04T07:34:38;94922.72;;;29.85;44.38
8280;BME280;8335;42.646;23.380;2022-09-04T07:37:17;94928.06;;;30.13;43.42
8280;BME280;8335;42.646;23.380;2022-09-04T07:39:59;94930.56;;;30.71;42.29
8280;BME280;8335;42.646;23.380;2022-09-04T07:42:33;94940.16;;;31.61;40.86
8280;BME280;8335;42.646;23.380;2022-09-04T07:45:04;94945.75;;;32.19;40.11
8280;BME280;8335;42.646;23.380;2022-09-04T07:47:36;94955.91;;;32.75;38.85
8280;BME280;8335;42.646;23.380;2022-09-04T07:50:09;94954.31;;;32.87;37.90
8280;BME280;8335;42.646;23.380;2022-09-04T07:52:56;94961.19;;;32.68;38.37
8280;BME280;8335;42.646;23.380;2022-09-04T07:55:36;94946.63;;;32.46;38.90
8280;BME280;8335;42.646;23.380;2022-09-04T07:58:26;94962.22;;;32.74;38.63
8280;BME280;8335;42.646;23.380;2022-09-04T08:01:11;94963.84;;;32.35;39.12
8280;BME280;8335;42.646;23.380;2022-09-04T08:06:39;94961.56;;;32.19;39.42
8280;BME280;8335;42.646;23.380;2022-09-04T08:12:39;94979.81;;;32.27;39.19
8280;BME280;8335;42.646;23.380;2022-09-04T08:15:16;94920.84;;;32.08;40.13
8280;BME280;8335;42.646;23.380;2022-09-04T08:18:03;94983.25;;;32.27;39.26
8280;BME280;8335;42.646;23.380;2022-09-04T08:20:41;94985.28;;;32.19;38.96
8280;BME280;8335;42.646;23.380;2022-09-04T08:23:26;94974.09;;;31.97;39.45
8280;BME280;8335;42.646;23.380;2022-09-04T08:26:03;94967.81;;;31.98;38.98
8280;BME280;8335;42.646;23.380;2022-09-04T08:28:59;94978.19;;;32.19;39.77
8280;BME280;8335;42.646;23.380;2022-09-04T08:31:35;94977.59;;;32.24;38.67
8280;BME280;8335;42.646;23.380;2022-09-04T08:34:33;94977.34;;;31.99;39.70
8280;BME280;8335;42.646;23.380;2022-09-04T08:37:14;94967.28;;;31.61;40.17
8280;BME280;8335;42.646;23.380;2022-09-04T08:39:52;94968.91;;;31.62;40.10
8280;BME280;8335;42.646;23.380;2022-09-04T08:42:49;94969.88;;;31.55;39.06
8280;BME280;8335;42.646;23.380;2022-09-04T08:48:50;94967.78;;;31.85;39.01
8280;BME280;8335;42.646;23.380;2022-09-04T08:51:43;94970.28;;;32.26;37.92
8280;BME280;8335;42.646;23.380;2022-09-04T08:54:39;94966.88;;;32.39;37.69
8280;BME280;8335;42.646;23.380;2022-09-04T08:57:48;94963.22;;;32.79;37.44
8280;BME280;8335;42.646;23.380;2022-09-04T09:00:22;94953.06;;;32.70;37.53
8280;BME280;8335;42.646;23.380;2022-09-04T09:06:18;94949.63;;;32.96;35.72
8280;BME280;8335;42.646;23.380;2022-09-04T09:09:08;94933.94;;;33.07;35.96
8280;BME280;8335;42.646;23.380;2022-09-04T09:18:35;94939.97;;;33.28;32.92
8280;BME280;8335;42.646;23.380;2022-09-04T09:21:08;94953.34;;;33.53;33.07
8280;BME280;8335;42.646;23.380;2022-09-04T09:24:05;94951.53;;;34.23;32.28
8280;BME280;8335;42.646;23.380;2022-09-04T09:26:37;94900.75;;;34.39;32.02
8280;BME280;8335;42.646;23.380;2022-09-04T09:29:39;94953.06;;;34.87;30.86
8280;BME280;8335;42.646;23.380;2022-09-04T09:32:43;94948.22;;;34.03;31.87
8280;BME280;8335;42.646;23.380;2022-09-04T09:35:48;94945.28;;;33.79;32.26
8280;BME280;8335;42.646;23.380;2022-09-04T09:41:58;94944.75;;;33.57;33.02
8280;BME280;8335;42.646;23.380;2022-09-04T09:44:55;94938.31;;;33.85;33.38
8280;BME280;8335;42.646;23.380;2022-09-04T09:50:44;94936.72;;;33.46;33.38
8280;BME280;8335;42.646;23.380;2022-09-04T09:53:39;94933.66;;;33.87;33.71
8280;BME280;8335;42.646;23.380;2022-09-04T10:02:59;94914.63;;;33.72;32.31
8280;BME280;8335;42.646;23.380;2022-09-04T10:06:11;94917.09;;;34.05;31.88
8280;BME280;8335;42.646;23.380;2022-09-04T10:12:36;94932.47;;;34.89;31.90
8280;BME280;8335;42.646;23.380;2022-09-04T10:15:26;94936.03;;;35.01;31.55
8280;BME280;8335;42.646;23.380;2022-09-04T10:21:49;94918.47;;;34.64;31.71
8280;BME280;8335;42.646;23.380;2022-09-04T10:30:22;94904.44;;;33.75;32.49
8280;BME280;8335;42.646;23.380;2022-09-04T10:33:26;94888.81;;;33.29;33.55
8280;BME280;8335;42.646;23.380;2022-09-04T10:36:08;94899.69;;;33.59;33.66
8280;BME280;8335;42.646;23.380;2022-09-04T10:38:41;94892.38;;;33.54;33.88
8280;BME280;8335;42.646;23.380;2022-09-04T10:42:00;94896.31;;;33.38;34.32
8280;BME280;8335;42.646;23.380;2022-09-04T10:44:52;94894.69;;;33.31;34.62
8280;BME280;8335;42.646;23.380;2022-09-04T10:50:32;94883.75;;;32.16;34.92
8280;BME280;8335;42.646;23.380;2022-09-04T10:53:15;94874.56;;;31.79;35.96
8280;BME280;8335;42.646;23.380;2022-09-04T10:56:01;94868.88;;;31.69;37.16
8280;BME280;8335;42.646;23.380;2022-09-04T10:58:49;94869.78;;;31.28;37.27
8280;BME280;8335;42.646;23.380;2022-09-04T11:08:18;94855.13;;;30.43;39.16
8280;BME280;8335;42.646;23.380;2022-09-04T11:11:00;94848.19;;;30.29;40.61
8280;BME280;8335;42.646;23.380;2022-09-04T11:16:47;94839.66;;;29.77;40.67
8280;BME280;8335;42.646;23.380;2022-09-04T11:19:32;94848.13;;;29.73;40.96
8280;BME280;8335;42.646;23.380;2022-09-04T11:22:46;94838.34;;;29.45;41.08
8280;BME280;8335;42.646;23.380;2022-09-04T11:25:45;94834.03;;;29.01;43.23
8280;BME280;8335;42.646;23.380;2022-09-04T11:32:03;94829.19;;;28.39;44.31
8280;BME280;8335;42.646;23.380;2022-09-04T11:35:26;94825.69;;;28.09;45.50
8280;BME280;8335;42.646;23.380;2022-09-04T11:38:15;94827.75;;;27.99;45.19
8280;BME280;8335;42.646;23.380;2022-09-04T11:41:23;94814.44;;;27.63;46.60
8280;BME280;8335;42.646;23.380;2022-09-04T11:47:15;94818.38;;;27.44;46.02
8280;BME280;8335;42.646;23.380;2022-09-04T11:52:54;94818.06;;;27.39;47.63
8280;BME280;8335;42.646;23.380;2022-09-04T11:55:51;94820.53;;;27.09;47.52
8280;BME280;8335;42.646;23.380;2022-09-04T11:58:40;94808.81;;;26.97;48.47
8280;BME280;8335;42.646;23.380;2022-09-04T12:01:27;94793.94;;;26.98;48.50
8280;BME280;8335;42.646;23.380;2022-09-04T12:07:11;94792.66;;;27.25;48.29
8280;BME280;8335;42.646;23.380;2022-09-04T12:10:14;94789.75;;;27.20;47.67
8280;BME280;8335;42.646;23.380;2022-09-04T12:13:05;94782.91;;;27.19;49.19
8280;BME280;8335;42.646;23.380;2022-09-04T12:16:07;94783.03;;;27.25;48.36
8280;BME280;8335;42.646;23.380;2022-09-04T12:19:02;94784.81;;;27.25;48.32
8280;BME280;8335;42.646;23.380;2022-09-04T12:22:08;94781.03;;;27.27;47.66
8280;BME280;8335;42.646;23.380;2022-09-04T12:27:41;94786.69;;;27.39;49.00
8280;BME280;8335;42.646;23.380;2022-09-04T12:30:18;94783.47;;;27.29;47.03
8280;BME280;8335;42.646;23.380;2022-09-04T12:36:24;94783.66;;;27.04;46.67
8280;BME280;8335;42.646;23.380;2022-09-04T12:42:05;94770.25;;;26.99;48.81
8280;BME280;8335;42.646;23.380;2022-09-04T12:44:44;94775.34;;;26.93;46.70
8280;BME280;8335;42.646;23.380;2022-09-04T12:47:31;94773.66;;;27.00;46.87
8280;BME280;8335;42.646;23.380;2022-09-04T12:50:15;94773.53;;;27.01;46.59
8280;BME280;8335;42.646;23.380;2022-09-04T12:53:03;94775.19;;;26.94;48.29
8280;BME280;8335;42.646;23.380;2022-09-04T12:55:43;94769.09;;;27.02;48.33
8280;BME280;8335;42.646;23.380;2022-09-04T12:58:21;94770.88;;;27.09;47.89
8280;BME280;8335;42.646;23.380;2022-09-04T13:01:04;94775.69;;;27.21;47.48
8280;BME280;8335;42.646;23.380;2022-09-04T13:03:39;94770.25;;;27.30;47.52
8280;BME280;8335;42.646;23.380;2022-09-04T13:06:18;94748.16;;;27.10;45.88
8280;BME280;8335;42.646;23.380;2022-09-04T13:08:56;94744.69;;;27.18;45.84
8280;BME280;8335;42.646;23.380;2022-09-04T13:11:33;94779.16;;;27.36;45.73
8280;BME280;8335;42.646;23.380;2022-09-04T13:14:21;94779.13;;;27.44;45.17
8280;BME280;8335;42.646;23.380;2022-09-04T13:17:00;94770.13;;;27.47;46.12
8280;BME280;8335;42.646;23.380;2022-09-04T13:19:38;94768.94;;;27.49;46.57
8280;BME280;8335;42.646;23.380;2022-09-04T13:22:19;94773.19;;;27.50;46.61
8280;BME280;8335;42.646;23.380;2022-09-04T13:25:00;94773.84;;;27.52;46.44
8280;BME280;8335;42.646;23.380;2022-09-04T13:27:38;94779.00;;;27.60;45.60
8280;BME280;8335;42.646;23.380;2022-09-04T13:30:11;94774.38;;;27.62;45.95
8280;BME280;8335;42.646;23.380;2022-09-04T13:32:57;94785.66;;;27.63;45.80
8280;BME280;8335;42.646;23.380;2022-09-04T13:35:37;94781.88;;;27.51;45.66
8280;BME280;8335;42.646;23.380;2022-09-04T13:38:24;94784.19;;;27.68;46.08
8280;BME280;8335;42.646;23.380;2022-09-04T13:41:17;94778.28;;;27.66;45.68
8280;BME280;8335;42.646;23.380;2022-09-04T13:44:19;94776.63;;;27.74;48.56
8280;BME280;8335;42.646;23.380;2022-09-04T13:46:57;94780.78;;;27.83;48.93
8280;BME280;8335;42.646;23.380;2022-09-04T13:49:31;94781.59;;;27.83;50.05
8280;BME280;8335;42.646;23.380;2022-09-04T13:52:07;94779.00;;;27.98;49.87
8280;BME280;8335;42.646;23.380;2022-09-04T13:54:38;94780.06;;;27.89;47.66
8280;BME280;8335;42.646;23.380;2022-09-04T13:57:14;94776.34;;;27.68;46.78
8280;BME280;8335;42.646;23.380;2022-09-04T13:59:43;94786.72;;;27.54;46.79
8280;BME280;8335;42.646;23.380;2022-09-04T14:02:16;94779.47;;;27.41;48.03
8280;BME280;8335;42.646;23.380;2022-09-04T14:04:51;94773.09;;;27.43;47.43
8280;BME280;8335;42.646;23.380;2022-09-04T14:07:22;94781.22;;;27.49;47.41
8280;BME280;8335;42.646;23.380;2022-09-04T14:09:52;94766.25;;;26.88;49.57
8280;BME280;8335;42.646;23.380;2022-09-04T14:12:40;94779.31;;;26.49;52.17
8280;BME280;8335;42.646;23.380;2022-09-04T14:15:19;94729.41;;;25.89;53.66
8280;BME280;8335;42.646;23.380;2022-09-04T14:18:02;94777.28;;;26.12;54.48
8280;BME280;8335;42.646;23.380;2022-09-04T14:20:46;94786.44;;;26.08;53.71
8280;BME280;8335;42.646;23.380;2022-09-04T14:23:28;94783.53;;;25.78;55.17
8280;BME280;8335;42.646;23.380;2022-09-04T14:26:04;94752.41;;;25.52;55.76
8280;BME280;8335;42.646;23.380;2022-09-04T14:28:43;94776.03;;;25.43;56.12
8280;BME280;8335;42.646;23.380;2022-09-04T14:31:16;94773.59;;;25.17;56.51
8280;BME280;8335;42.646;23.380;2022-09-04T14:33:52;94786.28;;;25.04;56.30
8280;BME280;8335;42.646;23.380;2022-09-04T14:36:31;94776.91;;;24.85;57.11
8280;BME280;8335;42.646;23.380;2022-09-04T14:39:17;94776.25;;;24.83;57.54
8280;BME280;8335;42.646;23.380;2022-09-04T14:42:07;94789.75;;;24.78;57.80
8280;BME280;8335;42.646;23.380;2022-09-04T14:44:51;94786.53;;;24.84;57.72
8280;BME280;8335;42.646;23.380;2022-09-04T14:47:27;94776.91;;;24.85;57.64
8280;BME280;8335;42.646;23.380;2022-09-04T14:50:00;94782.81;;;24.95;57.81
8280;BME280;8335;42.646;23.380;2022-09-04T14:52:28;94781.31;;;24.92;58.17
8280;BME280;8335;42.646;23.380;2022-09-04T14:54:57;94776.09;;;24.84;58.55
8280;BME280;8335;42.646;23.380;2022-09-04T14:57:31;94781.91;;;24.70;59.60
8280;BME280;8335;42.646;23.380;2022-09-04T15:00:09;94782.91;;;24.77;60.95
8280;BME280;8335;42.646;23.380;2022-09-04T15:02:42;94786.19;;;24.79;61.06
8280;BME280;8335;42.646;23.380;2022-09-04T15:05:18;94774.56;;;24.57;62.10
8280;BME280;8335;42.646;23.380;2022-09-04T15:07:55;94781.38;;;24.50;61.93
8280;BME280;8335;42.646;23.380;2022-09-04T15:10:43;94785.00;;;24.31;62.38
8280;BME280;8335;42.646;23.380;2022-09-04T15:13:49;94788.16;;;24.09;63.14
8280;BME280;8335;42.646;23.380;2022-09-04T15:16:40;94791.66;;;24.00;63.46
8280;BME280;8335;42.646;23.380;2022-09-04T15:19:22;94785.75;;;23.89;63.14
8280;BME280;8335;42.646;23.380;2022-09-04T15:21:57;94787.91;;;23.94;62.66
8280;BME280;8335;42.646;23.380;2022-09-04T15:24:27;94789.38;;;23.97;62.47
8280;BME280;8335;42.646;23.380;2022-09-04T15:27:04;94797.88;;;24.07;62.38
8280;BME280;8335;42.646;23.380;2022-09-04T15:29:39;94802.94;;;24.08;62.74
8280;BME280;8335;42.646;23.380;2022-09-04T15:32:18;94811.69;;;24.07;63.44
8280;BME280;8335;42.646;23.380;2022-09-04T15:34:45;94805.19;;;24.03;64.13
8280;BME280;8335;42.646;23.380;2022-09-04T15:37:17;94788.19;;;23.91;64.79
8280;BME280;8335;42.646;23.380;2022-09-04T15:39:52;94800.56;;;23.89;65.32
8280;BME280;8335;42.646;23.380;2022-09-04T15:42:37;94791.94;;;23.88;65.69
8280;BME280;8335;42.646;23.380;2022-09-04T15:45:14;94787.34;;;23.82;65.26
8280;BME280;8335;42.646;23.380;2022-09-04T15:47:55;94802.22;;;23.72;65.43
8280;BME280;8335;42.646;23.380;2022-09-04T15:50:31;94812.03;;;23.60;65.63
8280;BME280;8335;42.646;23.380;2022-09-04T15:53:10;94809.69;;;23.57;65.88
8280;BME280;8335;42.646;23.380;2022-09-04T15:55:40;94803.34;;;23.52;66.24
8280;BME280;8335;42.646;23.380;2022-09-04T15:58:14;94727.22;;;22.98;66.78
8280;BME280;8335;42.646;23.380;2022-09-04T16:01:04;94798.84;;;23.36;67.63
8280;BME280;8335;42.646;23.380;2022-09-04T16:03:44;94808.25;;;23.19;68.53